createdAt,value
2019-02-20T00:03:40.217Z,8.80
2019-02-20T00:06:12.562Z,8.90
2019-02-20T00:08:53.823Z,8.80
2019-02-20T00:11:36.109Z,8.80
2019-02-20T00:14:20.341Z,8.80
2019-02-20T00:17:02.540Z,8.60
2019-02-20T00:19:44.754Z,8.40
2019-02-20T00:22:25.801Z,8.20
2019-02-20T00:24:55.413Z,8.20
2019-02-20T00:27:43.875Z,8.40
2019-02-20T00:30:25.190Z,8.50
2019-02-20T00:32:54.692Z,8.60
2019-02-20T00:35:43.273Z,8.60
2019-02-20T00:38:31.813Z,8.60
2019-02-20T00:41:13.257Z,8.60
2019-02-20T00:47:39.762Z,8.70
2019-02-20T00:53:36.021Z,8.70
2019-02-20T00:59:21.882Z,8.60
2019-02-20T01:02:08.811Z,8.60
2019-02-20T01:04:50.895Z,8.70
2019-02-20T01:07:32.466Z,8.70
2019-02-20T01:10:13.182Z,8.70
2019-02-20T01:12:54.467Z,8.80
2019-02-20T01:15:59.862Z,8.60
2019-02-20T01:18:42.873Z,8.50
2019-02-20T01:21:25.647Z,8.40
2019-02-20T01:24:08.072Z,8.40
2019-02-20T01:26:50.980Z,8.10
2019-02-20T01:29:32.344Z,8.10
2019-02-20T01:32:13.937Z,8.10
2019-02-20T01:34:55.604Z,8.10
2019-02-20T01:37:36.692Z,8.20
2019-02-20T01:40:19.229Z,8.10
2019-02-20T01:43:00.300Z,8.10
2019-02-20T01:45:42.423Z,8.20
2019-02-20T01:48:23.954Z,8.20
2019-02-20T01:51:05.918Z,8.00
2019-02-20T01:53:47.233Z,8.00
2019-02-20T01:56:28.386Z,8.10
2019-02-20T01:59:09.859Z,8.20
2019-02-20T02:01:55.190Z,8.20
2019-02-20T02:04:37.552Z,8.20
2019-02-20T02:07:18.853Z,8.20
2019-02-20T02:10:07.213Z,8.20
2019-02-20T02:12:48.134Z,8.10
2019-02-20T02:18:27.676Z,7.90
2019-02-20T02:21:09.161Z,8.00
2019-02-20T02:23:50.398Z,8.10
2019-02-20T02:26:35.062Z,8.10
2019-02-20T02:32:23.559Z,8.10
2019-02-20T02:35:04.206Z,8.20
2019-02-20T02:37:45.655Z,8.30
2019-02-20T02:40:26.984Z,8.40
2019-02-20T02:43:10.622Z,8.20
2019-02-20T02:46:01.670Z,8.10
2019-02-20T02:48:42.496Z,8.00
2019-02-20T02:51:24.118Z,8.00
2019-02-20T02:54:05.621Z,8.00
2019-02-20T02:56:47.906Z,7.80
2019-02-20T02:59:30.114Z,7.80
2019-02-20T03:02:11.115Z,7.80
2019-02-20T03:04:53.962Z,8.00
2019-02-20T03:07:34.925Z,8.10
2019-02-20T03:10:15.572Z,7.90
2019-02-20T03:12:57.292Z,7.90
2019-02-20T03:16:00.254Z,7.90
2019-02-20T03:18:41.714Z,7.90
2019-02-20T03:21:23.146Z,7.90
2019-02-20T03:24:10.021Z,7.90
2019-02-20T03:26:51.368Z,7.90
2019-02-20T03:29:34.464Z,7.80
2019-02-20T03:32:17.540Z,7.80
2019-02-20T03:34:58.930Z,7.90
2019-02-20T03:37:39.907Z,7.90
2019-02-20T03:40:23.971Z,8.00
2019-02-20T03:43:04.855Z,8.20
2019-02-20T03:45:47.242Z,8.30
2019-02-20T03:48:28.366Z,8.40
2019-02-20T03:51:09.684Z,8.60
2019-02-20T03:53:52.894Z,8.60
2019-02-20T03:56:33.863Z,8.50
2019-02-20T03:59:15.170Z,8.30
2019-02-20T04:01:56.629Z,8.20
2019-02-20T04:04:38.488Z,8.10
2019-02-20T04:07:21.941Z,8.00
2019-02-20T04:10:03.020Z,8.00
2019-02-20T04:12:32.550Z,7.90
2019-02-20T04:16:12.103Z,7.90
2019-02-20T04:18:44.509Z,7.90
2019-02-20T04:21:29.022Z,8.00
2019-02-20T04:24:31.558Z,8.00
2019-02-20T04:27:14.531Z,8.10
2019-02-20T04:29:55.796Z,8.10
2019-02-20T04:32:36.734Z,8.10
2019-02-20T04:35:30.245Z,8.20
2019-02-20T04:38:11.253Z,8.10
2019-02-20T04:41:05.004Z,8.10
2019-02-20T04:43:46.893Z,8.20
2019-02-20T04:46:28.321Z,8.10
2019-02-20T04:49:20.140Z,8.00
2019-02-20T04:52:01.750Z,8.10
2019-02-20T04:54:42.804Z,8.00
2019-02-20T04:57:23.609Z,7.90
2019-02-20T05:00:05.838Z,8.00
2019-02-20T05:02:57.287Z,8.00
2019-02-20T05:05:38.049Z,8.00
2019-02-20T05:08:19.387Z,8.00
2019-02-20T05:11:01.001Z,8.10
2019-02-20T05:14:03.300Z,8.10
2019-02-20T05:16:52.234Z,8.00
2019-02-20T05:19:33.519Z,8.10
2019-02-20T05:22:14.127Z,8.20
2019-02-20T05:24:55.950Z,8.30
2019-02-20T05:27:36.720Z,8.20
2019-02-20T05:30:18.276Z,8.20
2019-02-20T05:33:00.286Z,8.20
2019-02-20T05:35:40.849Z,8.10
2019-02-20T05:38:21.822Z,8.00
2019-02-20T05:41:03.157Z,8.00
2019-02-20T05:43:45.125Z,7.90
2019-02-20T05:46:26.665Z,8.00
2019-02-20T05:49:08.041Z,8.00
2019-02-20T05:51:49.908Z,8.00
2019-02-20T05:54:47.290Z,8.00
2019-02-20T05:57:28.199Z,8.00
2019-02-20T06:03:39.151Z,7.90
2019-02-20T06:12:34.775Z,8.10
2019-02-20T06:15:17.527Z,8.10
2019-02-20T06:18:05.035Z,8.10
2019-02-20T06:24:13.543Z,8.10
2019-02-20T06:30:03.783Z,8.00
2019-02-20T06:32:46.054Z,8.10
2019-02-20T06:35:27.437Z,8.20
2019-02-20T06:40:54.286Z,8.10
2019-02-20T06:43:35.723Z,8.20
2019-02-20T06:46:16.950Z,8.20
2019-02-20T06:48:58.538Z,8.10
2019-02-20T06:51:42.956Z,8.10
2019-02-20T06:54:30.140Z,8.10
2019-02-20T07:00:29.697Z,7.90
2019-02-20T07:03:10.734Z,8.10
2019-02-20T07:09:41.026Z,8.00
2019-02-20T07:12:29.956Z,7.90
2019-02-20T07:15:12.141Z,7.90
2019-02-20T07:17:53.543Z,8.10
2019-02-20T07:20:37.975Z,8.10
2019-02-20T07:23:18.665Z,8.20
2019-02-20T07:26:01.611Z,8.10
2019-02-20T07:28:46.642Z,8.20
2019-02-20T07:31:29.659Z,8.00
2019-02-20T07:34:10.497Z,7.90
2019-02-20T07:36:54.161Z,8.00
2019-02-20T07:39:43.452Z,8.10
2019-02-20T07:42:27.228Z,8.10
2019-02-20T07:45:18.357Z,8.20
2019-02-20T07:48:22.200Z,8.20
2019-02-20T07:51:10.717Z,8.10
2019-02-20T07:53:51.539Z,8.00
2019-02-20T07:56:34.564Z,8.00
2019-02-20T08:00:21.219Z,8.00
2019-02-20T08:03:06.202Z,8.00
2019-02-20T08:05:54.666Z,8.10
2019-02-20T08:08:43.254Z,8.20
2019-02-20T08:11:27.201Z,8.20
2019-02-20T08:17:59.661Z,8.10
2019-02-20T08:23:25.918Z,8.20
2019-02-20T08:26:07.914Z,8.30
2019-02-20T08:28:48.926Z,8.30
2019-02-20T08:31:18.452Z,8.30
2019-02-20T08:34:25.921Z,8.40
2019-02-20T08:37:11.625Z,8.40
2019-02-20T08:39:59.737Z,8.30
2019-02-20T08:42:40.762Z,8.40
2019-02-20T08:45:21.780Z,8.50
2019-02-20T08:48:09.123Z,8.50
2019-02-20T08:50:52.494Z,8.60
2019-02-20T08:53:41.600Z,8.60
2019-02-20T08:56:24.600Z,8.80
2019-02-20T09:01:53.865Z,8.70
2019-02-20T09:04:43.272Z,8.70
2019-02-20T09:07:28.886Z,8.70
2019-02-20T09:10:09.620Z,8.80
2019-02-20T09:12:50.808Z,9.00
2019-02-20T09:15:32.344Z,9.10
2019-02-20T09:18:13.764Z,9.20
2019-02-20T09:20:59.596Z,9.20
2019-02-20T09:23:44.641Z,9.20
2019-02-20T09:26:26.013Z,9.40
2019-02-20T09:32:13.287Z,9.80
2019-02-20T09:35:05.467Z,9.80
2019-02-20T09:37:48.815Z,9.60
2019-02-20T09:40:36.573Z,9.50
2019-02-20T09:43:36.253Z,9.40
2019-02-20T09:46:20.620Z,9.50
2019-02-20T09:49:07.262Z,9.50
2019-02-20T09:51:49.464Z,9.60
2019-02-20T09:54:34.746Z,9.50
2019-02-20T09:57:04.212Z,9.40
2019-02-20T09:59:52.839Z,9.50
2019-02-20T10:02:34.102Z,9.70
2019-02-20T10:05:14.034Z,9.50
2019-02-20T10:08:31.080Z,9.70
2019-02-20T10:11:12.801Z,9.60
2019-02-20T10:13:53.968Z,9.70
2019-02-20T10:16:37.841Z,9.70
2019-02-20T10:19:19.747Z,9.80
2019-02-20T10:22:03.749Z,9.90
2019-02-20T10:24:51.153Z,9.90
2019-02-20T10:27:36.777Z,10.10
2019-02-20T10:33:44.779Z,10.10
2019-02-20T10:36:26.533Z,10.20
2019-02-20T10:39:07.705Z,10.40
2019-02-20T10:41:59.159Z,10.50
2019-02-20T10:44:43.334Z,10.40
2019-02-20T10:47:36.546Z,10.50
2019-02-20T10:50:37.102Z,10.50
2019-02-20T10:53:18.505Z,10.60
2019-02-20T10:56:08.901Z,10.70
2019-02-20T10:58:49.159Z,10.60
2019-02-20T11:01:29.951Z,10.60
2019-02-20T11:04:11.242Z,10.70
2019-02-20T11:07:14.032Z,10.60
2019-02-20T11:09:58.226Z,10.70
2019-02-20T11:12:45.103Z,10.70
2019-02-20T11:15:54.284Z,10.70
2019-02-20T11:18:36.952Z,10.80
2019-02-20T11:21:17.823Z,10.80
2019-02-20T11:24:02.871Z,11.00
2019-02-20T11:26:53.193Z,11.10
2019-02-20T11:29:27.623Z,11.00
2019-02-20T11:32:08.921Z,11.00
2019-02-20T11:34:50.720Z,11.00
2019-02-20T11:37:34.103Z,11.00
2019-02-20T11:40:17.650Z,11.10
2019-02-20T11:43:09.927Z,11.20
2019-02-20T11:45:58.209Z,11.30
2019-02-20T11:48:41.621Z,11.30
2019-02-20T11:51:39.624Z,11.30
2019-02-20T11:54:20.561Z,11.30
2019-02-20T11:57:01.671Z,11.30
2019-02-20T11:59:42.611Z,11.20
2019-02-20T12:02:25.421Z,11.10
2019-02-20T12:05:06.572Z,10.90
2019-02-20T12:07:48.226Z,11.00
2019-02-20T12:10:29.450Z,11.10
2019-02-20T12:13:10.974Z,11.30
2019-02-20T12:15:52.278Z,11.40
2019-02-20T12:18:33.592Z,11.40
2019-02-20T12:21:25.794Z,11.20
2019-02-20T12:24:12.009Z,11.20
2019-02-20T12:26:53.212Z,11.40
2019-02-20T12:29:35.511Z,11.30
2019-02-20T12:32:38.981Z,11.10
2019-02-20T12:35:20.404Z,11.20
2019-02-20T12:38:02.488Z,11.50
2019-02-20T12:40:43.305Z,11.70
2019-02-20T12:43:24.748Z,11.80
2019-02-20T12:45:54.279Z,11.90
2019-02-20T12:48:43.101Z,12.00
2019-02-20T12:51:25.453Z,12.20
2019-02-20T12:54:06.771Z,12.20
2019-02-20T13:03:15.818Z,12.20
2019-02-20T13:05:56.555Z,12.10
2019-02-20T13:08:43.939Z,12.00
2019-02-20T13:11:24.982Z,12.10
2019-02-20T13:14:06.850Z,12.30
2019-02-20T13:16:51.521Z,12.50
2019-02-20T13:19:33.143Z,12.60
2019-02-20T13:22:14.594Z,12.60
2019-02-20T13:24:56.205Z,12.60
2019-02-20T13:27:37.491Z,12.60
2019-02-20T13:30:20.302Z,12.50
2019-02-20T13:33:02.663Z,12.30
2019-02-20T13:35:44.294Z,12.20
2019-02-20T13:38:25.738Z,12.30
2019-02-20T13:41:07.139Z,12.20
2019-02-20T13:43:48.262Z,12.10
2019-02-20T13:46:45.496Z,12.10
2019-02-20T13:49:27.974Z,12.10
2019-02-20T13:52:09.387Z,12.10
2019-02-20T13:54:50.096Z,12.10
2019-02-20T13:57:31.680Z,12.00
2019-02-20T14:00:13.530Z,12.00
2019-02-20T14:02:43.091Z,12.10
2019-02-20T14:05:31.696Z,12.10
2019-02-20T14:08:12.950Z,12.20
2019-02-20T14:10:54.464Z,12.20
2019-02-20T14:13:35.765Z,12.40
2019-02-20T14:16:05.207Z,12.30
2019-02-20T14:18:54.837Z,12.30
2019-02-20T14:21:43.354Z,12.30
2019-02-20T14:24:24.586Z,12.30
2019-02-20T14:27:10.659Z,12.20
2019-02-20T14:29:48.866Z,12.10
2019-02-20T14:32:29.662Z,12.10
2019-02-20T14:38:18.260Z,12.00
2019-02-20T14:40:58.979Z,12.00
2019-02-20T14:43:40.325Z,12.00
2019-02-20T14:46:24.313Z,12.10
2019-02-20T14:49:05.757Z,12.10
2019-02-20T14:51:47.548Z,12.10
2019-02-20T14:54:27.122Z,12.10
2019-02-20T14:57:07.770Z,12.10
2019-02-20T15:03:11.374Z,12.10
2019-02-20T15:09:00.075Z,12.00
2019-02-20T15:11:40.822Z,12.10
2019-02-20T15:14:21.965Z,12.10
2019-02-20T15:16:51.818Z,12.10
2019-02-20T15:19:40.440Z,12.00
2019-02-20T15:22:28.933Z,12.00
2019-02-20T15:25:10.196Z,11.90
2019-02-20T15:27:49.783Z,11.90
2019-02-20T15:30:31.316Z,11.80
2019-02-20T15:33:12.617Z,11.80
2019-02-20T15:35:54.100Z,11.80
2019-02-20T15:38:35.162Z,11.70
2019-02-20T15:41:16.772Z,11.60
2019-02-20T15:43:46.204Z,11.60
2019-02-20T15:46:15.786Z,11.70
2019-02-20T15:49:04.396Z,11.70
2019-02-20T15:51:53.090Z,11.80
2019-02-20T15:54:34.124Z,11.60
2019-02-20T15:57:15.691Z,11.70
2019-02-20T15:59:57.137Z,11.60
2019-02-20T16:02:36.677Z,11.60
2019-02-20T16:05:25.180Z,11.60
2019-02-20T16:08:07.327Z,11.50
2019-02-20T16:10:48.888Z,11.50
2019-02-20T16:13:30.361Z,11.50
2019-02-20T16:16:11.660Z,11.50
2019-02-20T16:18:52.692Z,11.40
2019-02-20T16:21:22.469Z,11.40
2019-02-20T16:24:11.315Z,11.40
2019-02-20T16:27:19.665Z,11.30
2019-02-20T16:30:00.592Z,11.20
2019-02-20T16:32:42.102Z,11.20
2019-02-20T16:35:23.699Z,11.20
2019-02-20T16:38:05.229Z,11.30
2019-02-20T16:40:46.725Z,11.20
2019-02-20T16:43:16.566Z,11.10
2019-02-20T16:46:05.128Z,11.00
2019-02-20T16:48:53.629Z,10.90
2019-02-20T16:51:36.649Z,10.80
2019-02-20T16:54:20.288Z,10.80
2019-02-20T16:57:01.889Z,10.70
2019-02-20T16:59:42.766Z,10.60
2019-02-20T17:02:24.307Z,10.60
2019-02-20T17:05:13.010Z,10.50
2019-02-20T17:07:50.412Z,10.50
2019-02-20T17:10:35.846Z,10.40
2019-02-20T17:13:16.820Z,10.40
2019-02-20T17:15:58.129Z,10.50
2019-02-20T17:18:40.299Z,10.40
2019-02-20T17:21:21.150Z,10.40
2019-02-20T17:24:04.104Z,10.40
2019-02-20T17:26:44.896Z,10.40
2019-02-20T17:29:26.869Z,10.30
2019-02-20T17:32:07.906Z,10.30
2019-02-20T17:34:48.649Z,10.30
2019-02-20T17:37:29.646Z,10.20
2019-02-20T17:40:17.834Z,10.10
2019-02-20T17:43:06.798Z,10.10
2019-02-20T17:45:50.632Z,10.10
2019-02-20T17:48:31.787Z,10.00
2019-02-20T17:51:12.990Z,10.00
2019-02-20T17:53:53.909Z,10.00
2019-02-20T17:56:35.300Z,9.90
2019-02-20T17:59:16.559Z,9.90
2019-02-20T18:01:58.515Z,9.90
2019-02-20T18:04:39.478Z,9.90
2019-02-20T18:07:22.507Z,9.90
2019-02-20T18:10:03.564Z,9.80
2019-02-20T18:12:45.125Z,9.80
2019-02-20T18:15:26.514Z,9.80
2019-02-20T18:21:15.247Z,9.70
2019-02-20T18:26:49.988Z,9.70
2019-02-20T18:29:31.097Z,9.60
2019-02-20T18:32:12.314Z,9.70
2019-02-20T18:34:53.819Z,9.70
2019-02-20T18:37:34.487Z,9.60
2019-02-20T18:40:15.857Z,9.60
2019-02-20T18:42:56.626Z,9.60
2019-02-20T18:45:37.402Z,9.50
2019-02-20T18:48:18.782Z,9.60
2019-02-20T18:50:59.416Z,9.50
2019-02-20T18:53:40.937Z,9.50
2019-02-20T18:56:10.511Z,9.50
2019-02-20T18:58:58.998Z,9.50
2019-02-20T19:01:39.887Z,9.40
2019-02-20T19:04:25.526Z,9.40
2019-02-20T19:07:06.991Z,9.40
2019-02-20T19:09:48.263Z,9.40
2019-02-20T19:12:29.555Z,9.40
2019-02-20T19:15:10.968Z,9.30
2019-02-20T19:17:52.698Z,9.30
2019-02-20T19:20:34.219Z,9.40
2019-02-20T19:23:15.555Z,9.40
2019-02-20T19:25:56.300Z,9.40
2019-02-20T19:28:44.211Z,9.40
2019-02-20T19:31:24.448Z,9.40
2019-02-20T19:34:07.827Z,9.40
2019-02-20T19:37:08.920Z,9.30
2019-02-20T19:40:11.691Z,9.30
2019-02-20T19:42:36.997Z,9.30
2019-02-20T19:45:18.629Z,9.30
2019-02-20T19:48:07.098Z,9.30
2019-02-20T19:50:49.437Z,9.30
2019-02-20T19:57:08.202Z,9.30
2019-02-20T20:00:15.910Z,9.30
2019-02-20T20:02:58.933Z,9.20
2019-02-20T20:08:45.472Z,9.30
2019-02-20T20:11:26.616Z,9.20
2019-02-20T20:14:08.234Z,9.20
2019-02-20T20:16:51.054Z,9.30
2019-02-20T20:19:32.351Z,9.30
2019-02-20T20:22:14.183Z,9.20
2019-02-20T20:25:24.404Z,9.30
2019-02-20T20:28:31.456Z,9.30
2019-02-20T20:31:13.366Z,9.30
2019-02-20T20:33:54.711Z,9.20
2019-02-20T20:36:37.690Z,9.30
2019-02-20T20:39:19.420Z,9.20
2019-02-20T20:42:00.389Z,9.20
2019-02-20T20:45:08.894Z,9.10
2019-02-20T20:47:50.428Z,9.10
2019-02-20T20:50:34.269Z,9.10
2019-02-20T20:56:43.872Z,9.10
2019-02-20T20:59:25.010Z,9.20
2019-02-20T21:02:06.487Z,9.10
2019-02-20T21:04:47.446Z,9.20
2019-02-20T21:07:55.288Z,9.20
2019-02-20T21:10:36.926Z,9.20
2019-02-20T21:13:18.149Z,9.10
2019-02-20T21:16:14.453Z,9.00
2019-02-20T21:19:22.245Z,9.10
2019-02-20T21:22:03.286Z,9.00
2019-02-20T21:24:45.800Z,9.00
2019-02-20T21:27:27.240Z,9.00
2019-02-20T21:30:08.641Z,9.00
2019-02-20T21:33:11.935Z,9.00
2019-02-20T21:36:20.981Z,9.00
2019-02-20T21:39:02.770Z,9.00
2019-02-20T21:41:44.835Z,8.90
2019-02-20T21:44:26.429Z,8.90
2019-02-20T21:47:07.794Z,9.00
2019-02-20T21:49:48.982Z,9.00
2019-02-20T21:52:30.230Z,9.00
2019-02-20T21:55:37.953Z,9.00
2019-02-20T21:58:45.422Z,9.00
2019-02-20T22:01:26.218Z,9.00
2019-02-20T22:04:07.020Z,8.90
2019-02-20T22:06:48.591Z,8.90
2019-02-20T22:09:29.363Z,9.00
2019-02-20T22:12:10.039Z,9.00
2019-02-20T22:14:51.466Z,9.00
2019-02-20T22:17:32.483Z,9.00
2019-02-20T22:20:16.173Z,9.00
2019-02-20T22:22:56.835Z,9.00
2019-02-20T22:25:38.038Z,8.90
2019-02-20T22:28:19.472Z,9.00
2019-02-20T22:31:00.713Z,9.00
2019-02-20T22:33:42.549Z,9.00
2019-02-20T22:36:23.583Z,9.00
2019-02-20T22:39:05.180Z,9.10
2019-02-20T22:41:46.262Z,9.00
2019-02-20T22:44:27.776Z,8.90
2019-02-20T22:47:08.490Z,8.80
2019-02-20T22:49:50.032Z,8.80
2019-02-20T22:52:31.211Z,8.70
2019-02-20T22:55:12.625Z,8.70
2019-02-20T22:57:53.926Z,8.80
2019-02-20T23:00:40.987Z,8.80
2019-02-20T23:03:23.333Z,8.80
2019-02-20T23:06:04.746Z,8.80
2019-02-20T23:08:45.846Z,8.80
2019-02-20T23:11:26.940Z,8.80
2019-02-20T23:14:08.402Z,8.70
2019-02-20T23:16:49.944Z,8.70
2019-02-20T23:19:31.428Z,8.70
2019-02-20T23:22:12.114Z,8.70
2019-02-20T23:24:52.913Z,8.60
2019-02-20T23:27:22.490Z,8.50
2019-02-20T23:30:13.158Z,8.40
2019-02-20T23:32:55.299Z,8.30
2019-02-20T23:35:36.666Z,8.30
2019-02-20T23:38:21.900Z,8.30
2019-02-20T23:41:03.601Z,8.30
2019-02-20T23:43:44.706Z,8.40
2019-02-20T23:46:25.972Z,8.40
2019-02-20T23:49:07.399Z,8.40
2019-02-20T23:51:48.707Z,8.40
2019-02-20T23:54:30.073Z,8.30
2019-02-20T23:57:10.639Z,8.30
2019-02-20T23:59:51.611Z,8.40
